createdAt,value
2022-12-09T00:01:14.983Z,50.88
2022-12-09T00:03:43.689Z,49.40
2022-12-09T00:06:23.407Z,48.50
2022-12-09T00:08:51.678Z,49.90
2022-12-09T00:11:20.416Z,44.70
2022-12-09T00:13:50.100Z,53.33
2022-12-09T00:16:18.340Z,41.00
2022-12-09T00:18:46.356Z,47.65
2022-12-09T00:21:14.997Z,45.22
2022-12-09T00:23:42.528Z,44.85
2022-12-09T00:26:10.505Z,49.45
2022-12-09T00:28:39.077Z,47.00
2022-12-09T00:31:08.021Z,47.10
2022-12-09T00:33:36.217Z,39.65
2022-12-09T00:36:18.088Z,47.97
2022-12-09T00:41:14.677Z,44.47
2022-12-09T00:43:42.812Z,41.53
2022-12-09T00:46:11.354Z,43.15
2022-12-09T00:48:39.701Z,41.45
2022-12-09T00:51:08.844Z,40.67
2022-12-09T00:53:36.709Z,41.28
2022-12-09T00:56:04.247Z,43.53
2022-12-09T00:58:32.062Z,39.25
2022-12-09T01:00:59.312Z,46.85
2022-12-09T01:03:27.579Z,41.85
2022-12-09T01:05:55.984Z,41.90
2022-12-09T01:08:23.845Z,40.83
2022-12-09T01:10:51.276Z,52.65
2022-12-09T01:13:18.788Z,39.83
2022-12-09T01:15:47.852Z,44.38
2022-12-09T01:18:15.457Z,44.08
2022-12-09T01:20:42.824Z,46.13
2022-12-09T01:23:11.467Z,42.05
2022-12-09T01:25:39.399Z,41.67
2022-12-09T01:28:07.319Z,38.78
2022-12-09T01:30:34.889Z,41.03
2022-12-09T01:33:02.481Z,40.75
2022-12-09T01:35:30.014Z,39.95
2022-12-09T01:37:57.887Z,51.35
2022-12-09T01:40:25.743Z,43.60
2022-12-09T01:42:54.812Z,38.67
2022-12-09T01:45:22.407Z,42.88
2022-12-09T01:48:11.332Z,40.50
2022-12-09T01:50:46.899Z,43.90
2022-12-09T01:53:16.901Z,40.33
2022-12-09T01:55:45.139Z,40.28
2022-12-09T01:58:14.875Z,38.67
2022-12-09T02:00:44.065Z,35.72
2022-12-09T02:03:12.886Z,39.53
2022-12-09T02:05:40.642Z,35.85
2022-12-09T02:08:13.794Z,37.92
2022-12-09T02:10:52.259Z,30.02
2022-12-09T02:13:29.988Z,25.83
2022-12-09T02:15:59.902Z,24.25
2022-12-09T02:18:38.511Z,26.83
2022-12-09T02:21:13.004Z,22.60
2022-12-09T02:23:53.771Z,29.17
2022-12-09T02:26:41.292Z,29.70
2022-12-09T02:29:24.888Z,27.25
2022-12-09T02:32:20.046Z,26.90
2022-12-09T02:34:55.450Z,25.13
2022-12-09T02:37:30.321Z,26.10
2022-12-09T02:40:08.483Z,28.05
2022-12-09T02:42:40.671Z,23.13
2022-12-09T02:45:11.070Z,26.27
2022-12-09T02:47:47.504Z,25.60
2022-12-09T02:50:20.984Z,29.23
2022-12-09T02:52:51.575Z,28.35
2022-12-09T02:55:22.345Z,29.35
2022-12-09T02:57:57.197Z,30.83
2022-12-09T03:00:25.310Z,25.70
2022-12-09T03:02:56.245Z,25.90
2022-12-09T03:08:22.385Z,23.45
2022-12-09T03:10:53.624Z,31.45
2022-12-09T03:13:45.714Z,29.27
2022-12-09T03:16:39.273Z,31.17
2022-12-09T03:19:27.826Z,25.45
2022-12-09T03:21:59.285Z,29.35
2022-12-09T03:27:09.303Z,42.58
2022-12-09T03:29:41.604Z,54.00
2022-12-09T03:32:15.382Z,49.75
2022-12-09T03:34:46.828Z,56.42
2022-12-09T03:37:18.236Z,50.67
2022-12-09T03:39:46.981Z,39.03
2022-12-09T03:42:27.827Z,41.22
2022-12-09T03:45:01.286Z,36.42
2022-12-09T03:47:32.768Z,32.47
2022-12-09T03:50:00.577Z,37.55
2022-12-09T03:52:31.255Z,28.40
2022-12-09T03:55:09.434Z,30.85
2022-12-09T03:57:42.017Z,32.25
2022-12-09T04:00:10.924Z,28.02
2022-12-09T04:02:41.886Z,29.33
2022-12-09T04:05:09.579Z,28.13
2022-12-09T04:07:37.631Z,29.80
2022-12-09T04:10:06.206Z,29.52
2022-12-09T04:12:34.512Z,32.58
2022-12-09T04:15:02.061Z,30.20
2022-12-09T04:17:29.860Z,31.63
2022-12-09T04:19:58.023Z,28.08
2022-12-09T04:22:25.717Z,31.40
2022-12-09T04:24:53.610Z,24.38
2022-12-09T04:27:21.189Z,23.30
2022-12-09T04:29:48.757Z,31.58
2022-12-09T04:32:16.667Z,26.40
2022-12-09T04:34:44.182Z,27.35
2022-12-09T04:37:13.157Z,30.48
2022-12-09T04:39:41.937Z,30.25
2022-12-09T04:42:09.636Z,29.33
2022-12-09T04:44:37.202Z,25.83
2022-12-09T04:47:05.010Z,24.80
2022-12-09T04:49:32.405Z,24.88
2022-12-09T04:52:00.171Z,26.63
2022-12-09T04:54:27.628Z,23.98
2022-12-09T04:56:55.699Z,27.10
2022-12-09T04:59:23.117Z,22.98
2022-12-09T05:01:50.945Z,23.77
2022-12-09T05:04:18.810Z,25.83
2022-12-09T05:06:46.535Z,28.98
2022-12-09T05:09:14.462Z,23.35
2022-12-09T05:11:42.251Z,28.52
2022-12-09T05:14:09.669Z,27.27
2022-12-09T05:16:37.935Z,27.30
2022-12-09T05:19:05.526Z,26.65
2022-12-09T05:21:33.516Z,26.95
2022-12-09T05:24:05.062Z,32.38
2022-12-09T05:29:00.276Z,27.52
2022-12-09T05:31:28.342Z,33.58
2022-12-09T05:33:56.239Z,28.42
2022-12-09T05:36:25.808Z,34.13
2022-12-09T05:38:55.391Z,32.78
2022-12-09T05:41:24.372Z,30.65
2022-12-09T05:43:52.643Z,34.65
2022-12-09T05:46:21.469Z,30.67
2022-12-09T05:48:49.952Z,32.17
2022-12-09T05:51:26.562Z,34.67
2022-12-09T05:53:55.055Z,28.00
2022-12-09T05:56:24.566Z,27.67
2022-12-09T05:58:53.406Z,29.98
2022-12-09T06:01:21.452Z,27.45
2022-12-09T06:03:51.206Z,31.48
2022-12-09T06:06:21.659Z,34.80
2022-12-09T06:08:54.333Z,30.75
2022-12-09T06:11:23.092Z,31.60
2022-12-09T06:13:51.927Z,32.78
2022-12-09T06:16:21.921Z,26.85
2022-12-09T06:18:50.495Z,29.10
2022-12-09T06:21:20.908Z,36.30
2022-12-09T06:23:50.627Z,32.75
2022-12-09T06:26:21.671Z,24.83
2022-12-09T06:28:49.541Z,31.40
2022-12-09T06:31:18.145Z,33.80
2022-12-09T06:33:54.633Z,29.50
2022-12-09T06:36:24.992Z,31.05
2022-12-09T06:38:52.723Z,25.55
2022-12-09T06:41:20.647Z,30.98
2022-12-09T06:43:48.261Z,28.60
2022-12-09T06:46:18.731Z,33.00
2022-12-09T06:48:47.522Z,28.48
2022-12-09T06:51:17.761Z,26.85
2022-12-09T06:53:46.209Z,26.98
2022-12-09T06:56:15.122Z,30.40
2022-12-09T06:58:43.882Z,31.80
2022-12-09T07:01:20.284Z,30.85
2022-12-09T07:03:51.433Z,29.38
2022-12-09T07:06:32.811Z,28.35
2022-12-09T07:09:03.255Z,36.45
2022-12-09T07:11:31.450Z,27.65
2022-12-09T07:13:59.656Z,24.75
2022-12-09T07:16:28.548Z,26.17
2022-12-09T07:18:56.582Z,30.55
2022-12-09T07:21:24.953Z,25.27
2022-12-09T07:23:52.791Z,26.88
2022-12-09T07:26:21.409Z,28.90
2022-12-09T07:28:50.568Z,28.35
2022-12-09T07:31:25.280Z,27.13
2022-12-09T07:33:54.600Z,29.15
2022-12-09T07:36:27.950Z,23.88
2022-12-09T07:39:03.997Z,25.98
2022-12-09T07:41:32.392Z,27.27
2022-12-09T07:43:59.874Z,22.63
2022-12-09T07:46:27.865Z,23.45
2022-12-09T07:48:57.326Z,21.67
2022-12-09T07:51:25.974Z,23.98
2022-12-09T07:53:54.191Z,24.98
2022-12-09T07:56:24.024Z,22.38
2022-12-09T07:58:54.119Z,21.23
2022-12-09T08:01:25.984Z,21.02
2022-12-09T08:03:54.801Z,21.23
2022-12-09T08:06:25.956Z,21.58
2022-12-09T08:08:53.913Z,21.88
2022-12-09T08:11:24.514Z,26.40
2022-12-09T08:13:53.225Z,24.70
2022-12-09T08:16:23.295Z,22.48
2022-12-09T08:18:52.599Z,24.58
2022-12-09T08:21:26.939Z,27.50
2022-12-09T08:24:00.503Z,25.90
2022-12-09T08:26:31.454Z,24.58
2022-12-09T08:28:59.862Z,31.75
2022-12-09T08:31:28.587Z,31.23
2022-12-09T08:33:57.032Z,27.25
2022-12-09T08:36:27.336Z,28.48
2022-12-09T08:38:56.243Z,32.40
2022-12-09T08:41:38.046Z,26.83
2022-12-09T08:44:15.230Z,24.10
2022-12-09T08:46:46.445Z,24.27
2022-12-09T08:49:19.254Z,24.97
2022-12-09T08:51:49.493Z,20.65
2022-12-09T08:54:17.291Z,22.98
2022-12-09T08:56:50.800Z,21.27
2022-12-09T08:59:18.777Z,24.13
2022-12-09T09:01:47.421Z,30.38
2022-12-09T09:04:18.464Z,26.38
2022-12-09T09:06:50.271Z,23.58
2022-12-09T09:09:19.733Z,26.33
2022-12-09T09:11:48.258Z,21.40
2022-12-09T09:14:16.517Z,21.05
2022-12-09T09:16:45.410Z,22.25
2022-12-09T09:19:17.418Z,20.73
2022-12-09T09:21:45.202Z,23.90
2022-12-09T09:24:16.781Z,21.20
2022-12-09T09:26:44.985Z,21.88
2022-12-09T09:29:14.442Z,21.55
2022-12-09T09:31:43.009Z,22.27
2022-12-09T09:34:11.491Z,21.25
2022-12-09T09:36:40.585Z,22.30
2022-12-09T09:39:08.428Z,19.83
2022-12-09T09:42:05.958Z,24.23
2022-12-09T09:44:45.517Z,21.13
2022-12-09T09:47:44.055Z,25.73
2022-12-09T09:50:32.803Z,19.85
2022-12-09T09:53:10.324Z,16.92
2022-12-09T09:55:50.432Z,19.05
2022-12-09T09:58:27.117Z,19.17
2022-12-09T10:01:16.480Z,27.33
2022-12-09T10:04:07.539Z,23.23
2022-12-09T10:06:50.909Z,25.08
2022-12-09T10:09:25.662Z,22.65
2022-12-09T10:12:10.953Z,22.52
2022-12-09T10:14:51.413Z,22.55
2022-12-09T10:17:25.062Z,22.15
2022-12-09T10:19:58.569Z,18.35
2022-12-09T10:22:30.637Z,20.85
2022-12-09T10:27:43.374Z,24.20
2022-12-09T10:30:14.099Z,28.48
2022-12-09T10:32:42.292Z,27.08
2022-12-09T10:35:22.535Z,29.33
2022-12-09T10:37:54.999Z,27.20
2022-12-09T10:40:47.389Z,32.35
2022-12-09T10:43:35.304Z,26.42
2022-12-09T10:46:23.183Z,24.58
2022-12-09T10:48:51.334Z,25.35
2022-12-09T10:51:32.023Z,29.02
2022-12-09T10:54:33.616Z,25.88
2022-12-09T10:57:17.069Z,26.80
2022-12-09T11:00:08.299Z,22.15
2022-12-09T11:02:36.619Z,24.83
2022-12-09T11:05:28.703Z,26.58
2022-12-09T11:07:58.629Z,27.83
2022-12-09T11:10:29.447Z,23.65
2022-12-09T11:13:05.294Z,23.88
2022-12-09T11:15:39.730Z,23.17
2022-12-09T11:18:21.352Z,27.35
2022-12-09T11:21:00.909Z,23.50
2022-12-09T11:23:29.896Z,25.50
2022-12-09T11:26:24.547Z,23.95
2022-12-09T11:29:24.832Z,26.52
2022-12-09T11:31:52.483Z,26.00
2022-12-09T11:34:26.258Z,25.23
2022-12-09T11:36:57.845Z,28.10
2022-12-09T11:39:35.512Z,27.23
2022-12-09T11:42:19.847Z,28.50
2022-12-09T11:45:00.768Z,28.45
2022-12-09T11:47:44.854Z,24.17
2022-12-09T11:50:32.399Z,25.60
2022-12-09T11:53:12.292Z,25.35
2022-12-09T11:55:45.228Z,26.50
2022-12-09T11:58:18.644Z,25.50
2022-12-09T12:00:51.777Z,22.40
2022-12-09T12:03:24.824Z,22.23
2022-12-09T12:05:55.281Z,22.95
2022-12-09T12:08:43.713Z,16.23
2022-12-09T12:11:16.414Z,16.45
2022-12-09T12:13:49.963Z,18.13
2022-12-09T12:16:39.518Z,16.05
2022-12-09T12:19:33.520Z,14.05
2022-12-09T12:22:28.958Z,19.75
2022-12-09T12:25:17.084Z,17.77
2022-12-09T12:28:04.069Z,21.65
2022-12-09T12:30:54.653Z,19.95
2022-12-09T12:34:16.227Z,23.10
2022-12-09T12:36:52.583Z,23.23
2022-12-09T12:39:35.290Z,21.65
2022-12-09T12:42:20.924Z,22.38
2022-12-09T12:45:28.528Z,22.40
2022-12-09T12:48:23.467Z,19.52
2022-12-09T12:51:42.903Z,19.58
2022-12-09T12:54:37.552Z,23.73
2022-12-09T12:57:23.742Z,24.75
2022-12-09T13:00:16.334Z,21.88
2022-12-09T13:03:09.032Z,21.88
2022-12-09T13:05:41.563Z,21.10
2022-12-09T13:08:17.883Z,20.38
2022-12-09T13:10:57.262Z,20.15
2022-12-09T13:13:36.648Z,21.40
2022-12-09T13:16:35.218Z,23.98
2022-12-09T13:19:26.794Z,19.60
2022-12-09T13:21:54.682Z,22.25
2022-12-09T13:24:47.690Z,24.45
2022-12-09T13:27:24.535Z,22.13
2022-12-09T13:29:57.656Z,23.42
2022-12-09T13:32:52.559Z,22.60
2022-12-09T13:35:23.587Z,24.20
2022-12-09T13:37:52.483Z,20.27
2022-12-09T13:40:36.897Z,25.80
2022-12-09T13:43:06.602Z,25.50
2022-12-09T13:45:43.476Z,24.92
2022-12-09T13:48:16.476Z,28.33
2022-12-09T13:51:00.196Z,27.42
2022-12-09T13:53:36.740Z,27.55
2022-12-09T13:56:09.787Z,28.95
2022-12-09T13:58:55.277Z,27.30
2022-12-09T14:01:52.871Z,32.17
2022-12-09T14:04:30.410Z,24.20
2022-12-09T14:07:21.802Z,26.02
2022-12-09T14:09:56.614Z,25.80
2022-12-09T14:12:26.884Z,29.02
2022-12-09T14:14:56.353Z,22.95
2022-12-09T14:17:23.956Z,29.45
2022-12-09T14:19:51.243Z,24.52
2022-12-09T14:22:19.711Z,23.52
2022-12-09T14:24:55.027Z,23.45
2022-12-09T14:27:31.043Z,23.90
2022-12-09T14:30:04.056Z,28.08
2022-12-09T14:32:52.287Z,21.58
2022-12-09T14:35:44.214Z,22.90
2022-12-09T14:40:53.416Z,26.90
2022-12-09T14:46:00.897Z,25.10
2022-12-09T14:48:35.743Z,24.10
2022-12-09T14:51:13.019Z,25.17
2022-12-09T14:53:40.740Z,26.40
2022-12-09T14:56:08.712Z,23.20
2022-12-09T14:58:36.352Z,29.67
2022-12-09T15:01:06.595Z,26.20
2022-12-09T15:03:43.111Z,26.08
2022-12-09T15:06:17.071Z,25.73
2022-12-09T15:08:45.197Z,26.02
2022-12-09T15:11:16.965Z,27.23
2022-12-09T15:13:48.106Z,30.25
2022-12-09T15:16:19.724Z,27.63
2022-12-09T15:21:30.622Z,27.08
2022-12-09T15:24:00.837Z,31.58
2022-12-09T15:26:32.893Z,29.63
2022-12-09T15:29:01.440Z,27.73
2022-12-09T15:31:30.671Z,28.80
2022-12-09T15:34:07.754Z,30.85
2022-12-09T15:36:44.224Z,29.33
2022-12-09T15:39:23.683Z,30.35
2022-12-09T15:42:08.129Z,32.72
2022-12-09T15:44:49.199Z,30.77
2022-12-09T15:47:26.080Z,30.40
2022-12-09T15:50:11.329Z,29.00
2022-12-09T15:52:45.724Z,33.17
2022-12-09T15:55:18.052Z,28.13
2022-12-09T16:00:14.625Z,33.42
2022-12-09T16:02:45.467Z,29.80
2022-12-09T16:05:13.375Z,35.03
2022-12-09T16:07:56.207Z,33.72
2022-12-09T16:10:27.066Z,33.60
2022-12-09T16:13:06.917Z,33.90
2022-12-09T16:15:55.915Z,34.50
2022-12-09T16:18:26.950Z,38.95
2022-12-09T16:21:16.265Z,41.28
2022-12-09T16:23:47.163Z,40.58
2022-12-09T16:26:23.592Z,39.28
2022-12-09T16:29:03.109Z,39.67
2022-12-09T16:31:31.065Z,61.35
2022-12-09T16:33:58.564Z,47.78
2022-12-09T16:36:31.944Z,37.53
2022-12-09T16:39:08.430Z,36.58
2022-12-09T16:41:51.212Z,38.95
2022-12-09T16:44:21.133Z,35.78
2022-12-09T16:46:48.895Z,35.88
2022-12-09T16:49:16.125Z,39.50
2022-12-09T16:51:44.081Z,53.42
2022-12-09T16:54:20.279Z,51.10
2022-12-09T16:56:49.010Z,37.35
2022-12-09T16:59:16.324Z,33.65
2022-12-09T17:01:44.222Z,42.05
2022-12-09T17:04:19.418Z,37.75
2022-12-09T17:06:47.069Z,39.67
2022-12-09T17:09:14.584Z,41.08
2022-12-09T17:11:48.359Z,35.95
2022-12-09T17:14:17.095Z,29.80
2022-12-09T17:16:44.887Z,29.73
2022-12-09T17:19:13.204Z,31.27
2022-12-09T17:21:40.745Z,32.42
2022-12-09T17:24:10.052Z,33.45
2022-12-09T17:26:37.712Z,31.05
2022-12-09T17:29:07.194Z,31.42
2022-12-09T17:31:35.030Z,31.00
2022-12-09T17:34:02.308Z,29.80
2022-12-09T17:36:29.925Z,32.53
2022-12-09T17:39:01.987Z,35.53
2022-12-09T17:41:29.773Z,36.60
2022-12-09T17:43:57.944Z,33.30
2022-12-09T17:46:25.590Z,30.65
2022-12-09T17:48:52.879Z,30.30
2022-12-09T17:51:20.770Z,29.33
2022-12-09T17:53:48.538Z,35.67
2022-12-09T17:56:21.972Z,29.80
2022-12-09T17:58:56.904Z,28.30
2022-12-09T18:01:25.086Z,30.17
2022-12-09T18:03:59.236Z,27.45
2022-12-09T18:06:31.784Z,22.23
2022-12-09T18:08:58.993Z,16.60
2022-12-09T18:11:27.081Z,22.05
2022-12-09T18:13:54.433Z,23.38
2022-12-09T18:16:22.062Z,21.65
2022-12-09T18:18:49.473Z,23.25
2022-12-09T18:21:19.813Z,26.40
2022-12-09T18:23:48.395Z,21.98
2022-12-09T18:26:18.495Z,12.50
2022-12-09T18:28:45.748Z,10.95
2022-12-09T18:31:16.422Z,18.00
2022-12-09T18:33:43.751Z,8.45
2022-12-09T18:36:14.019Z,11.80
2022-12-09T18:38:42.244Z,13.32
2022-12-09T18:41:19.898Z,14.65
2022-12-09T18:43:49.504Z,22.30
2022-12-09T18:46:24.987Z,19.85
2022-12-09T18:49:07.839Z,21.48
2022-12-09T18:51:35.675Z,20.17
2022-12-09T18:54:04.115Z,18.33
2022-12-09T18:56:32.332Z,16.88
2022-12-09T18:59:08.581Z,23.73
2022-12-09T19:01:41.020Z,21.02
2022-12-09T19:04:13.592Z,27.23
2022-12-09T19:06:43.933Z,23.02
2022-12-09T19:09:15.150Z,23.75
2022-12-09T19:11:44.119Z,19.77
2022-12-09T19:14:11.803Z,17.25
2022-12-09T19:16:39.455Z,20.08
2022-12-09T19:19:10.398Z,23.00
2022-12-09T19:21:39.441Z,22.58
2022-12-09T19:24:07.862Z,18.50
2022-12-09T19:26:36.600Z,16.27
2022-12-09T19:29:06.853Z,16.20
2022-12-09T19:31:40.962Z,20.67
2022-12-09T19:34:17.576Z,16.77
2022-12-09T19:36:46.513Z,16.75
2022-12-09T19:39:15.094Z,20.42
2022-12-09T19:41:43.542Z,16.80
2022-12-09T19:44:15.343Z,22.83
2022-12-09T19:46:43.996Z,30.25
2022-12-09T19:49:16.385Z,25.80
2022-12-09T19:51:44.486Z,25.77
2022-12-09T19:54:11.735Z,24.70
2022-12-09T19:56:40.085Z,22.52
2022-12-09T19:59:07.613Z,25.52
2022-12-09T20:01:38.426Z,19.95
2022-12-09T20:04:47.603Z,22.73
2022-12-09T20:07:08.315Z,28.15
2022-12-09T20:09:36.974Z,28.05
2022-12-09T20:12:05.149Z,29.23
2022-12-09T20:14:32.433Z,26.75
2022-12-09T20:17:00.040Z,32.22
2022-12-09T20:19:27.924Z,27.42
2022-12-09T20:21:55.656Z,28.17
2022-12-09T20:24:23.191Z,27.02
2022-12-09T20:26:50.830Z,33.40
2022-12-09T20:29:18.097Z,28.67
2022-12-09T20:31:45.735Z,28.38
2022-12-09T20:34:16.242Z,28.52
2022-12-09T20:36:45.102Z,24.85
2022-12-09T20:39:18.711Z,27.13
2022-12-09T20:41:47.310Z,29.85
2022-12-09T20:44:15.937Z,25.02
2022-12-09T20:46:49.774Z,23.95
2022-12-09T20:49:17.611Z,15.23
2022-12-09T20:51:45.575Z,21.90
2022-12-09T20:54:13.568Z,21.15
2022-12-09T20:56:41.316Z,12.70
2022-12-09T20:59:10.646Z,26.42
2022-12-09T21:01:38.371Z,24.33
2022-12-09T21:04:07.228Z,27.70
2022-12-09T21:06:38.223Z,25.83
2022-12-09T21:09:12.869Z,25.88
2022-12-09T21:11:40.823Z,31.00
2022-12-09T21:14:08.570Z,30.35
2022-12-09T21:16:39.683Z,31.42
2022-12-09T21:19:10.454Z,35.08
2022-12-09T21:21:40.534Z,35.28
2022-12-09T21:24:09.535Z,36.20
2022-12-09T21:26:37.607Z,35.10
2022-12-09T21:29:04.814Z,33.65
2022-12-09T21:31:35.742Z,28.02
2022-12-09T21:34:06.347Z,17.52
2022-12-09T21:36:37.025Z,24.00
2022-12-09T21:39:06.537Z,26.27
2022-12-09T21:41:36.597Z,20.83
2022-12-09T21:44:05.121Z,22.92
2022-12-09T21:46:37.829Z,22.80
2022-12-09T21:49:06.661Z,22.02
2022-12-09T21:51:35.025Z,19.92
2022-12-09T21:54:02.612Z,22.45
2022-12-09T21:56:32.828Z,20.25
2022-12-09T21:59:00.877Z,19.00
2022-12-09T22:01:35.022Z,19.73
2022-12-09T22:04:04.157Z,21.08
2022-12-09T22:06:32.397Z,20.55
2022-12-09T22:09:00.686Z,17.48
2022-12-09T22:11:31.303Z,14.23
2022-12-09T22:14:00.273Z,15.07
2022-12-09T22:16:31.055Z,18.70
2022-12-09T22:18:59.874Z,17.90
2022-12-09T22:21:30.153Z,19.55
2022-12-09T22:24:01.197Z,15.48
2022-12-09T22:26:29.297Z,10.80
2022-12-09T22:28:59.548Z,12.68
2022-12-09T22:31:30.362Z,10.30
2022-12-09T22:34:01.387Z,13.27
2022-12-09T22:36:29.412Z,15.27
2022-12-09T22:38:56.790Z,17.83
2022-12-09T22:41:26.607Z,13.02
2022-12-09T22:43:55.019Z,16.65
2022-12-09T22:46:28.412Z,15.95
2022-12-09T22:48:57.705Z,14.70
2022-12-09T22:51:28.839Z,15.48
2022-12-09T22:53:57.459Z,15.50
2022-12-09T22:56:25.897Z,16.00
2022-12-09T22:58:53.471Z,16.73
2022-12-09T23:01:24.964Z,19.80
2022-12-09T23:03:53.697Z,17.27
2022-12-09T23:06:21.482Z,16.67
2022-12-09T23:08:49.230Z,17.65
2022-12-09T23:11:19.507Z,17.55
2022-12-09T23:13:47.432Z,17.85
2022-12-09T23:16:20.434Z,18.20
2022-12-09T23:18:48.347Z,17.73
2022-12-09T23:21:20.547Z,13.00
2022-12-09T23:23:47.807Z,18.67
2022-12-09T23:26:19.074Z,8.00
2022-12-09T23:28:49.375Z,9.93
2022-12-09T23:31:18.797Z,9.60
2022-12-09T23:33:47.578Z,13.65
2022-12-09T23:36:33.765Z,10.93
2022-12-09T23:39:02.989Z,8.05
2022-12-09T23:41:31.355Z,10.10
2022-12-09T23:43:58.664Z,7.65
2022-12-09T23:46:27.883Z,5.60
2022-12-09T23:48:56.242Z,5.53
2022-12-09T23:51:26.702Z,5.70
2022-12-09T23:53:59.436Z,6.32
2022-12-09T23:56:29.512Z,8.88
2022-12-09T23:59:03.475Z,6.28
